createdAt,value
2018-03-07T00:01:25.124Z,41.92
2018-03-07T00:04:35.729Z,57.75
2018-03-07T00:07:47.484Z,47.42
2018-03-07T00:10:58.272Z,43.47
2018-03-07T00:14:08.730Z,47.85
2018-03-07T00:17:18.854Z,49.13
2018-03-07T00:20:28.939Z,56.10
2018-03-07T00:23:39.238Z,61.88
2018-03-07T00:26:49.201Z,54.80
2018-03-07T00:29:59.931Z,49.90
2018-03-07T00:33:10.132Z,38.67
2018-03-07T00:36:21.522Z,41.40
2018-03-07T00:39:32.728Z,52.80
2018-03-07T00:42:42.834Z,60.22
2018-03-07T00:45:52.717Z,45.25
2018-03-07T00:49:02.801Z,56.17
2018-03-07T00:52:12.924Z,44.15
2018-03-07T00:55:23.047Z,38.33
2018-03-07T00:58:32.879Z,48.30
2018-03-07T01:01:43.728Z,42.00
2018-03-07T01:04:54.057Z,35.00
2018-03-07T01:08:04.490Z,29.52
2018-03-07T01:11:15.278Z,56.83
2018-03-07T01:14:25.596Z,42.40
2018-03-07T01:17:35.640Z,42.67
2018-03-07T01:20:45.775Z,42.20
2018-03-07T01:23:55.993Z,42.45
2018-03-07T01:27:06.065Z,40.67
2018-03-07T01:30:16.766Z,53.17
2018-03-07T01:33:27.574Z,48.53
2018-03-07T01:36:38.511Z,40.60
2018-03-07T01:39:49.200Z,35.70
2018-03-07T01:42:59.659Z,42.20
2018-03-07T01:46:10.660Z,44.25
2018-03-07T01:49:21.478Z,50.78
2018-03-07T01:52:31.482Z,58.85
2018-03-07T01:55:43.685Z,39.30
2018-03-07T01:58:53.543Z,45.78
2018-03-07T02:02:03.557Z,37.88
2018-03-07T02:05:14.332Z,31.02
2018-03-07T02:08:24.410Z,53.20
2018-03-07T02:11:34.306Z,50.10
2018-03-07T02:14:45.272Z,38.50
2018-03-07T02:17:56.740Z,63.55
2018-03-07T02:21:06.735Z,38.33
2018-03-07T02:24:16.686Z,54.63
2018-03-07T02:27:26.876Z,40.22
2018-03-07T02:30:37.733Z,46.17
2018-03-07T02:33:48.811Z,37.58
2018-03-07T02:36:58.815Z,52.10
2018-03-07T02:40:09.743Z,51.42
2018-03-07T02:46:56.258Z,50.80
2018-03-07T02:50:06.473Z,38.00
2018-03-07T02:53:16.571Z,46.78
2018-03-07T02:56:28.231Z,47.00
2018-03-07T02:59:38.103Z,38.40
2018-03-07T03:02:48.134Z,41.45
2018-03-07T03:05:58.293Z,31.37
2018-03-07T03:09:09.165Z,44.35
2018-03-07T03:12:20.099Z,33.53
2018-03-07T03:15:30.432Z,41.25
2018-03-07T03:18:41.340Z,45.38
2018-03-07T03:21:52.027Z,42.42
2018-03-07T03:25:02.436Z,34.17
2018-03-07T03:28:14.047Z,37.33
2018-03-07T03:31:24.178Z,30.50
2018-03-07T03:34:34.923Z,34.45
2018-03-07T03:37:45.960Z,50.60
2018-03-07T03:40:56.740Z,47.33
2018-03-07T03:44:06.671Z,40.03
2018-03-07T03:47:16.482Z,42.88
2018-03-07T03:50:28.076Z,40.60
2018-03-07T03:53:38.160Z,42.45
2018-03-07T03:56:48.117Z,47.33
2018-03-07T03:59:59.128Z,37.03
2018-03-07T04:03:10.131Z,39.65
2018-03-07T04:06:21.180Z,42.53
2018-03-07T04:09:31.469Z,36.75
2018-03-07T04:12:42.395Z,52.03
2018-03-07T04:15:52.517Z,44.63
2018-03-07T04:19:04.008Z,48.13
2018-03-07T04:22:14.770Z,32.70
2018-03-07T04:25:25.052Z,50.20
2018-03-07T04:28:35.146Z,50.70
2018-03-07T04:31:45.719Z,45.03
2018-03-07T04:34:56.268Z,33.80
2018-03-07T04:38:06.243Z,63.58
2018-03-07T04:41:16.754Z,46.95
2018-03-07T04:44:27.397Z,40.05
2018-03-07T04:47:38.432Z,53.45
2018-03-07T04:50:48.552Z,38.92
2018-03-07T04:53:59.895Z,36.90
2018-03-07T04:57:10.620Z,41.65
2018-03-07T05:00:21.188Z,61.17
2018-03-07T05:03:31.176Z,31.95
2018-03-07T05:06:41.710Z,45.00
2018-03-07T05:09:52.585Z,42.92
2018-03-07T05:13:02.927Z,45.72
2018-03-07T05:16:14.730Z,33.72
2018-03-07T05:19:25.559Z,38.58
2018-03-07T05:22:35.733Z,31.30
2018-03-07T05:25:46.704Z,36.28
2018-03-07T05:28:56.768Z,52.75
2018-03-07T05:32:07.520Z,40.50
2018-03-07T05:35:18.444Z,40.38
2018-03-07T05:38:28.676Z,50.50
2018-03-07T05:41:39.708Z,49.10
2018-03-07T05:44:49.921Z,46.70
2018-03-07T05:48:00.713Z,40.70
2018-03-07T05:51:11.559Z,54.05
2018-03-07T05:54:22.180Z,52.88
2018-03-07T05:57:33.574Z,46.50
2018-03-07T06:00:44.070Z,46.78
2018-03-07T06:03:55.720Z,31.77
2018-03-07T06:07:07.278Z,40.00
2018-03-07T06:10:17.458Z,43.17
2018-03-07T06:13:27.539Z,44.10
2018-03-07T06:16:39.322Z,42.92
2018-03-07T06:19:49.432Z,56.55
2018-03-07T06:22:59.680Z,42.80
2018-03-07T06:26:09.950Z,49.13
2018-03-07T06:29:20.506Z,36.15
2018-03-07T06:32:31.164Z,41.53
2018-03-07T06:35:42.120Z,51.03
2018-03-07T06:38:52.579Z,44.80
2018-03-07T06:42:02.837Z,37.63
2018-03-07T06:45:13.868Z,50.00
2018-03-07T06:48:24.843Z,54.38
2018-03-07T06:51:35.935Z,44.13
2018-03-07T06:54:46.732Z,51.65
2018-03-07T06:57:56.770Z,55.10
2018-03-07T07:01:07.751Z,51.58
2018-03-07T07:04:18.856Z,54.88
2018-03-07T07:07:30.009Z,53.95
2018-03-07T07:10:41.794Z,45.40
2018-03-07T07:13:52.177Z,63.80
2018-03-07T07:17:04.649Z,43.58
2018-03-07T07:20:15.466Z,64.50
2018-03-07T07:23:25.993Z,56.30
2018-03-07T07:26:37.316Z,55.97
2018-03-07T07:29:48.894Z,43.97
2018-03-07T07:33:00.013Z,66.37
2018-03-07T07:36:10.843Z,57.03
2018-03-07T07:39:23.941Z,59.45
2018-03-07T07:42:34.662Z,44.35
2018-03-07T07:45:45.777Z,39.55
2018-03-07T07:48:57.545Z,49.08
2018-03-07T07:52:08.332Z,50.22
2018-03-07T07:55:18.924Z,62.83
2018-03-07T07:58:30.045Z,74.12
2018-03-07T08:01:41.079Z,44.08
2018-03-07T08:04:51.849Z,49.95
2018-03-07T08:08:03.467Z,57.55
2018-03-07T08:11:13.738Z,57.95
2018-03-07T08:14:24.812Z,77.30
2018-03-07T08:17:35.440Z,62.72
2018-03-07T08:20:45.864Z,64.70
2018-03-07T08:23:56.345Z,60.47
2018-03-07T08:27:07.046Z,50.92
2018-03-07T08:30:17.188Z,63.55
2018-03-07T08:33:27.635Z,69.47
2018-03-07T08:36:38.668Z,71.93
2018-03-07T08:41:14.190Z,68.57
2018-03-07T08:44:24.349Z,70.85
2018-03-07T08:47:37.981Z,68.78
2018-03-07T08:50:49.825Z,83.40
2018-03-07T08:54:00.467Z,60.85
2018-03-07T08:57:11.225Z,72.37
2018-03-07T09:00:22.064Z,65.90
2018-03-07T09:03:33.463Z,71.28
2018-03-07T09:06:44.515Z,58.42
2018-03-07T09:09:55.208Z,74.22
2018-03-07T09:13:06.877Z,89.93
2018-03-07T09:16:19.028Z,70.78
2018-03-07T09:19:31.068Z,58.13
2018-03-07T09:22:43.800Z,58.40
2018-03-07T09:25:55.431Z,46.13
2018-03-07T09:29:05.451Z,74.68
2018-03-07T09:32:16.380Z,55.12
2018-03-07T09:35:27.356Z,60.25
2018-03-07T09:38:48.463Z,61.97
2018-03-07T09:41:59.837Z,59.40
2018-03-07T09:45:10.224Z,71.30
2018-03-07T09:48:24.516Z,54.08
2018-03-07T09:51:34.596Z,44.10
2018-03-07T09:54:44.866Z,60.72
2018-03-07T09:57:55.461Z,81.63
2018-03-07T10:01:11.319Z,45.85
2018-03-07T10:04:21.890Z,48.50
2018-03-07T10:07:32.244Z,72.72
2018-03-07T10:10:45.103Z,52.80
2018-03-07T10:13:56.196Z,46.63
2018-03-07T10:17:06.188Z,54.95
2018-03-07T10:20:16.058Z,48.53
2018-03-07T10:23:25.786Z,43.45
2018-03-07T10:26:36.556Z,47.45
2018-03-07T10:29:47.192Z,37.97
2018-03-07T10:32:57.064Z,42.90
2018-03-07T10:36:07.287Z,49.42
2018-03-07T10:39:17.633Z,38.00
2018-03-07T10:42:28.002Z,37.55
2018-03-07T10:45:38.552Z,38.10
2018-03-07T10:48:48.736Z,31.60
2018-03-07T10:51:59.417Z,26.02
2018-03-07T10:55:11.238Z,27.83
2018-03-07T10:58:22.841Z,28.12
2018-03-07T11:01:33.950Z,22.10
2018-03-07T11:04:44.220Z,35.15
2018-03-07T11:07:54.578Z,24.48
2018-03-07T11:11:05.417Z,30.17
2018-03-07T11:14:16.604Z,19.50
2018-03-07T11:17:26.494Z,18.98
2018-03-07T11:20:36.318Z,24.42
2018-03-07T11:23:46.957Z,28.12
2018-03-07T11:26:57.680Z,22.60
2018-03-07T11:30:07.597Z,43.72
2018-03-07T11:33:17.615Z,24.30
2018-03-07T11:36:28.324Z,29.75
2018-03-07T11:39:38.305Z,40.47
2018-03-07T11:42:48.135Z,28.58
2018-03-07T11:45:58.168Z,27.30
2018-03-07T11:49:08.374Z,36.72
2018-03-07T11:52:18.391Z,35.50
2018-03-07T11:55:29.538Z,35.97
2018-03-07T11:58:40.729Z,36.08
2018-03-07T12:01:50.886Z,28.92
2018-03-07T12:05:01.690Z,28.85
2018-03-07T12:08:12.280Z,51.97
2018-03-07T12:11:21.983Z,27.48
2018-03-07T12:14:32.746Z,34.22
2018-03-07T12:17:43.473Z,24.42
2018-03-07T12:20:55.982Z,27.35
2018-03-07T12:24:08.225Z,31.12
2018-03-07T12:30:36.923Z,30.30
2018-03-07T12:33:47.748Z,39.47
2018-03-07T12:36:58.099Z,27.50
2018-03-07T12:40:08.288Z,19.70
2018-03-07T12:43:18.593Z,25.50
2018-03-07T12:46:29.019Z,53.20
2018-03-07T12:49:40.402Z,24.23
2018-03-07T12:52:50.980Z,27.42
2018-03-07T12:56:00.746Z,28.83
2018-03-07T12:59:11.485Z,39.17
2018-03-07T13:02:21.480Z,23.23
2018-03-07T13:05:32.678Z,31.40
2018-03-07T13:08:42.992Z,25.65
2018-03-07T13:11:53.572Z,38.45
2018-03-07T13:15:04.422Z,30.55
2018-03-07T13:18:14.966Z,32.05
2018-03-07T13:21:25.223Z,25.95
2018-03-07T13:24:35.312Z,20.62
2018-03-07T13:27:45.722Z,30.17
2018-03-07T13:30:56.026Z,17.75
2018-03-07T13:34:06.289Z,26.05
2018-03-07T13:37:16.376Z,26.10
2018-03-07T13:40:26.975Z,22.15
2018-03-07T13:43:37.514Z,21.65
2018-03-07T13:46:47.483Z,16.20
2018-03-07T13:49:57.399Z,29.52
2018-03-07T13:53:07.850Z,21.60
2018-03-07T13:56:18.234Z,26.98
2018-03-07T13:59:28.153Z,16.55
2018-03-07T14:02:39.516Z,25.00
2018-03-07T14:05:49.522Z,18.67
2018-03-07T14:09:00.559Z,17.62
2018-03-07T14:12:11.390Z,27.13
2018-03-07T14:15:21.548Z,20.33
2018-03-07T14:18:31.746Z,25.02
2018-03-07T14:21:43.055Z,17.23
2018-03-07T14:24:53.062Z,27.52
2018-03-07T14:28:03.709Z,19.77
2018-03-07T14:31:14.161Z,22.08
2018-03-07T14:34:24.271Z,11.75
2018-03-07T14:37:34.510Z,26.58
2018-03-07T14:40:45.366Z,20.30
2018-03-07T14:43:56.876Z,22.20
2018-03-07T14:47:08.068Z,18.17
2018-03-07T14:50:17.990Z,27.27
2018-03-07T14:53:28.890Z,19.30
2018-03-07T14:56:39.185Z,22.37
2018-03-07T14:59:49.274Z,21.05
2018-03-07T15:02:59.822Z,22.50
2018-03-07T15:06:10.234Z,12.63
2018-03-07T15:09:20.306Z,13.38
2018-03-07T15:12:30.213Z,18.80
2018-03-07T15:15:40.541Z,29.50
2018-03-07T15:18:50.504Z,11.15
2018-03-07T15:22:00.493Z,13.77
2018-03-07T15:25:10.749Z,14.35
2018-03-07T15:28:21.188Z,12.95
2018-03-07T15:31:32.079Z,14.95
2018-03-07T15:34:41.914Z,13.02
2018-03-07T15:37:52.429Z,10.50
2018-03-07T15:41:02.688Z,10.80
2018-03-07T15:44:13.059Z,12.95
2018-03-07T15:47:22.931Z,15.63
2018-03-07T15:50:33.104Z,15.68
2018-03-07T15:53:43.649Z,15.00
2018-03-07T15:56:53.475Z,16.15
2018-03-07T16:00:03.292Z,12.60
2018-03-07T16:03:14.048Z,13.43
2018-03-07T16:06:24.794Z,16.42
2018-03-07T16:09:34.973Z,13.88
2018-03-07T16:12:45.487Z,12.45
2018-03-07T16:15:55.325Z,24.77
2018-03-07T16:19:05.218Z,13.02
2018-03-07T16:22:16.267Z,16.92
2018-03-07T16:25:26.638Z,17.48
2018-03-07T16:28:36.652Z,14.52
2018-03-07T16:31:46.662Z,24.02
2018-03-07T16:34:57.145Z,13.65
2018-03-07T16:38:07.428Z,18.02
2018-03-07T16:41:17.506Z,12.68
2018-03-07T16:44:27.907Z,17.67
2018-03-07T16:47:38.671Z,16.52
2018-03-07T16:50:48.944Z,11.48
2018-03-07T16:53:59.169Z,11.15
2018-03-07T16:57:09.732Z,20.15
2018-03-07T17:00:24.425Z,13.48
2018-03-07T17:03:35.098Z,12.35
2018-03-07T17:06:45.333Z,16.25
2018-03-07T17:09:55.583Z,11.52
2018-03-07T17:13:07.809Z,17.55
2018-03-07T17:16:18.157Z,13.25
2018-03-07T17:19:28.326Z,16.50
2018-03-07T17:22:38.399Z,16.05
2018-03-07T17:25:48.626Z,18.00
2018-03-07T17:28:58.409Z,13.80
2018-03-07T17:32:08.409Z,11.27
2018-03-07T17:35:18.852Z,15.38
2018-03-07T17:38:28.737Z,12.77
2018-03-07T17:41:39.094Z,10.80
2018-03-07T17:44:50.086Z,12.23
2018-03-07T17:48:00.232Z,11.95
2018-03-07T17:51:10.276Z,15.70
2018-03-07T17:54:20.468Z,11.88
2018-03-07T17:57:31.089Z,10.70
2018-03-07T18:00:41.191Z,11.95
2018-03-07T18:03:51.492Z,13.10
2018-03-07T18:07:01.540Z,15.93
2018-03-07T18:10:14.659Z,15.73
2018-03-07T18:13:25.261Z,9.98
2018-03-07T18:16:35.617Z,10.98
2018-03-07T18:19:46.439Z,8.75
2018-03-07T18:22:56.806Z,9.52
2018-03-07T18:26:06.669Z,11.25
2018-03-07T18:29:17.525Z,9.70
2018-03-07T18:32:28.439Z,9.55
2018-03-07T18:35:38.943Z,9.23
2018-03-07T18:38:49.040Z,8.13
2018-03-07T18:41:59.576Z,32.22
2018-03-07T18:45:09.862Z,9.35
2018-03-07T18:48:19.753Z,8.95
2018-03-07T18:51:29.617Z,8.50
2018-03-07T18:54:40.473Z,10.70
2018-03-07T18:57:50.971Z,10.45
2018-03-07T19:01:00.836Z,16.00
2018-03-07T19:04:10.863Z,8.45
2018-03-07T19:07:22.656Z,10.38
2018-03-07T19:10:33.359Z,10.85
2018-03-07T19:13:43.804Z,10.63
2018-03-07T19:16:54.005Z,11.57
2018-03-07T19:20:04.158Z,10.23
2018-03-07T19:23:14.995Z,12.05
2018-03-07T19:26:25.299Z,15.48
2018-03-07T19:29:35.481Z,10.60
2018-03-07T19:32:45.544Z,10.30
2018-03-07T19:35:56.068Z,12.37
2018-03-07T19:39:06.647Z,15.13
2018-03-07T19:42:16.969Z,10.27
2018-03-07T19:45:27.957Z,9.57
2018-03-07T19:48:38.684Z,8.40
2018-03-07T19:51:49.076Z,8.68
2018-03-07T19:55:00.646Z,9.02
2018-03-07T19:58:10.758Z,7.05
2018-03-07T20:01:21.636Z,8.40
2018-03-07T20:04:31.638Z,8.98
2018-03-07T20:43:34.490Z,9.20
2018-03-07T20:46:44.518Z,7.22
2018-03-07T20:49:54.389Z,7.68
2018-03-07T20:53:04.124Z,9.52
2018-03-07T20:56:14.717Z,13.38
2018-03-07T20:59:25.210Z,11.95
2018-03-07T21:02:36.113Z,11.95
2018-03-07T21:05:47.073Z,8.00
2018-03-07T21:08:58.419Z,7.28
2018-03-07T21:12:08.612Z,10.55
2018-03-07T21:15:18.488Z,8.55
2018-03-07T21:18:29.538Z,7.37
2018-03-07T21:21:39.761Z,11.68
2018-03-07T21:24:50.488Z,9.90
2018-03-07T21:28:01.447Z,6.70
2018-03-07T21:31:11.437Z,7.53
2018-03-07T21:34:22.865Z,8.15
2018-03-07T21:37:34.311Z,9.32
2018-03-07T21:40:44.131Z,8.25
2018-03-07T21:43:54.515Z,10.43
2018-03-07T21:47:04.666Z,11.10
2018-03-07T21:50:17.562Z,14.63
2018-03-07T21:53:28.423Z,11.43
2018-03-07T21:56:39.239Z,9.70
2018-03-07T21:59:49.732Z,11.95
2018-03-07T22:02:59.503Z,13.13
2018-03-07T22:06:09.888Z,10.73
2018-03-07T22:09:19.588Z,12.95
2018-03-07T22:12:29.778Z,7.10
2018-03-07T22:15:40.356Z,7.62
2018-03-07T22:18:51.104Z,6.93
2018-03-07T22:22:01.802Z,8.68
2018-03-07T22:25:11.695Z,6.65
2018-03-07T22:28:22.360Z,7.80
2018-03-07T22:31:33.053Z,6.85
2018-03-07T22:34:43.252Z,8.55
2018-03-07T22:37:53.171Z,10.25
2018-03-07T22:41:03.453Z,7.43
2018-03-07T22:44:13.706Z,8.05
2018-03-07T22:47:24.557Z,6.65
2018-03-07T22:50:34.833Z,6.85
2018-03-07T22:53:44.998Z,8.05
2018-03-07T22:56:55.041Z,16.65
2018-03-07T23:00:04.827Z,11.95
2018-03-07T23:03:15.258Z,7.85
2018-03-07T23:06:25.664Z,7.65
2018-03-07T23:09:35.786Z,10.68
2018-03-07T23:12:46.037Z,11.82
2018-03-07T23:15:56.291Z,16.80
2018-03-07T23:19:06.071Z,8.13
2018-03-07T23:22:16.613Z,6.55
2018-03-07T23:25:26.948Z,7.47
2018-03-07T23:28:36.779Z,7.00
2018-03-07T23:31:46.928Z,10.25
2018-03-07T23:34:57.148Z,13.55
2018-03-07T23:38:07.135Z,14.87
2018-03-07T23:41:17.182Z,9.25
2018-03-07T23:44:27.354Z,8.20
2018-03-07T23:47:37.288Z,7.03
2018-03-07T23:50:47.344Z,9.40
2018-03-07T23:53:58.120Z,10.90
2018-03-07T23:57:08.855Z,8.30
